Flugplatz Weißenhorn

Für EDNW sind keine METAR/TAF Berichte vorhanden.
Es werden die Flugwettermeldungen vom Flugplatz Laupheim Airport in 18 km Entfernung angezeigt.

Bericht für ETHL

vom 31.05. um 10:20 UTC

Wind 8 kt aus 40°

Sichtweite 7000 m

Temperatur 15.0°C

Taupunkt 3.0°C

Luftfeuchtigkeit 44%

Luftdruck 1019 hPa

ETHL 311020Z AUTO 04008KT 7000 // ////// 15/03 Q1019 ///
Keine Prognose (TAF) verfügbar.
Impressum